Time;durP1;ratioP1;P1;durP2;ratioP2;P2;SDS_P1;SDS_P2;PMS_P1;PMS_P2;Temp;Humidity;BMP_temperature;BMP_pressure;BME280_temperature;BME280_humidity;BME280_pressure;Samples;Min_cycle;Max_cycle;Signal;HPM_P1;HPM_P2
2023/09/10 00:02:02;;;;;;;17.35;13.90;;;18.90;99.90;;;;;;5030239;28;20285;-56
2023/09/10 00:04:28;;;;;;;16.05;14.05;;;18.80;99.90;;;;;;5028800;28;20044;-57
2023/09/10 00:06:54;;;;;;;19.67;17.58;;;18.80;99.90;;;;;;5031968;28;20033;-56
2023/09/10 00:09:20;;;;;;;16.48;14.77;;;18.80;99.90;;;;;;5030122;28;20048;-55
2023/09/10 00:11:46;;;;;;;9.75;8.80;;;18.80;99.90;;;;;;5025911;28;20043;-57
2023/09/10 00:14:13;;;;;;;11.45;9.77;;;18.80;99.90;;;;;;5025342;28;20041;-57
2023/09/10 00:16:38;;;;;;;8.77;7.85;;;18.70;99.90;;;;;;5025547;28;20072;-57
2023/09/10 00:19:04;;;;;;;8.77;7.97;;;18.70;99.90;;;;;;5022831;28;20439;-57
2023/09/10 00:21:30;;;;;;;8.85;7.95;;;18.70;99.90;;;;;;5028780;28;20801;-56
2023/09/10 00:23:55;;;;;;;10.32;9.32;;;18.60;99.90;;;;;;5024050;28;20416;-57
2023/09/10 00:26:21;;;;;;;12.05;10.95;;;18.60;99.90;;;;;;5019840;28;20061;-57
2023/09/10 00:28:49;;;;;;;12.18;10.98;;;18.60;99.90;;;;;;5026441;28;20063;-57
2023/09/10 00:31:15;;;;;;;11.38;10.27;;;18.50;99.90;;;;;;5023405;28;20528;-57
2023/09/10 00:33:41;;;;;;;10.30;9.35;;;18.50;99.90;;;;;;5015671;28;20255;-57
2023/09/10 00:36:08;;;;;;;11.68;10.57;;;18.40;99.90;;;;;;5029258;28;20953;-55
2023/09/10 00:38:34;;;;;;;10.73;9.73;;;18.40;99.90;;;;;;5030599;28;20112;-56
2023/09/10 00:41:00;;;;;;;13.38;11.98;;;18.30;99.90;;;;;;5032315;28;20044;-57
2023/09/10 00:43:25;;;;;;;15.32;13.70;;;18.30;99.90;;;;;;5024394;28;21279;-55
2023/09/10 00:45:52;;;;;;;15.07;13.48;;;18.20;99.90;;;;;;5030960;28;20048;-57
2023/09/10 00:48:18;;;;;;;15.30;13.68;;;18.30;99.90;;;;;;5024635;28;20051;-56
2023/09/10 00:50:44;;;;;;;14.95;12.63;;;18.30;99.90;;;;;;5027752;28;20045;-56
2023/09/10 00:53:10;;;;;;;13.27;11.70;;;18.30;99.90;;;;;;5012384;28;20588;-57
2023/09/10 00:55:37;;;;;;;16.45;14.68;;;18.30;99.90;;;;;;5030395;28;20075;-57
2023/09/10 00:58:03;;;;;;;17.17;15.32;;;18.30;99.90;;;;;;5025185;28;20178;-57
2023/09/10 01:00:29;;;;;;;17.00;15.15;;;18.20;99.90;;;;;;5029856;28;20679;-57
2023/09/10 01:02:58;;;;;;;16.17;13.70;;;18.20;99.90;;;;;;5024436;28;20049;-56
2023/09/10 01:05:24;;;;;;;17.02;14.40;;;18.20;99.90;;;;;;4996181;28;20439;-57
2023/09/10 01:07:51;;;;;;;16.17;13.90;;;18.20;99.90;;;;;;5026588;28;20579;-56
2023/09/10 01:10:17;;;;;;;17.10;14.82;;;18.20;99.90;;;;;;5029112;28;20083;-56
2023/09/10 01:12:47;;;;;;;17.88;15.80;;;18.20;99.90;;;;;;5025997;28;20056;-56
2023/09/10 01:15:36;;;;;;;14.35;12.68;;;18.20;99.90;;;;;;5025960;28;20049;-57
2023/09/10 01:18:14;;;;;;;13.25;11.75;;;18.20;99.90;;;;;;5028489;28;20052;-57
2023/09/10 01:21:00;;;;;;;15.07;12.23;;;18.10;99.90;;;;;;5029076;28;20045;-56
2023/09/10 01:23:41;;;;;;;16.60;12.40;;;18.10;99.90;;;;;;5017986;28;20654;-57
2023/09/10 01:26:07;;;;;;;16.92;14.27;;;18.10;99.90;;;;;;5011577;28;20095;-56
2023/09/10 01:28:32;;;;;;;16.60;14.43;;;18.10;99.90;;;;;;4996930;28;20175;-56
2023/09/10 01:30:58;;;;;;;19.48;14.05;;;18.00;99.90;;;;;;5016177;28;20427;-57
2023/09/10 01:33:35;;;;;;;17.33;14.07;;;18.00;99.90;;;;;;5012646;28;20099;-56
2023/09/10 01:36:19;;;;;;;20.05;17.65;;;18.00;99.90;;;;;;4990965;28;20078;-56
2023/09/10 01:38:56;;;;;;;18.95;16.92;;;18.00;99.90;;;;;;5013213;28;20048;-57
2023/09/10 01:41:24;;;;;;;19.58;16.90;;;17.90;99.90;;;;;;5011966;28;20041;-56
2023/09/10 01:43:52;;;;;;;20.88;16.63;;;17.90;99.90;;;;;;5015171;28;20053;-58
2023/09/10 01:46:19;;;;;;;16.90;14.90;;;17.90;99.90;;;;;;5013931;28;20148;-57
2023/09/10 01:48:44;;;;;;;16.30;14.07;;;17.80;99.90;;;;;;5010065;28;20501;-57
2023/09/10 01:51:10;;;;;;;18.38;16.00;;;17.80;99.90;;;;;;5012008;28;20164;-57
2023/09/10 01:53:36;;;;;;;18.58;15.80;;;17.80;99.90;;;;;;5012734;28;20132;-55
2023/09/10 01:56:02;;;;;;;21.08;17.90;;;17.80;99.90;;;;;;5015703;28;20623;-57
2023/09/10 01:58:28;;;;;;;21.05;18.52;;;17.80;99.90;;;;;;5011847;28;20485;-55
2023/09/10 02:00:53;;;;;;;18.38;16.48;;;17.80;99.90;;;;;;5013281;28;20048;-57
2023/09/10 02:03:19;;;;;;;23.58;20.52;;;17.80;99.90;;;;;;5014349;28;20102;-57
2023/09/10 02:05:45;;;;;;;16.90;15.13;;;17.70;99.90;;;;;;5003331;28;20068;-57
2023/09/10 02:08:10;;;;;;;19.80;17.65;;;17.70;99.90;;;;;;5015223;28;20042;-56
2023/09/10 02:10:36;;;;;;;23.38;20.15;;;17.70;99.90;;;;;;5016465;28;20076;-56
2023/09/10 02:13:05;;;;;;;24.38;21.20;;;17.70;99.90;;;;;;5011550;28;20459;-56
2023/09/10 02:15:30;;;;;;;27.13;23.00;;;17.70;99.90;;;;;;5010640;28;20702;-56
2023/09/10 02:17:57;;;;;;;26.95;22.55;;;17.70;99.90;;;;;;5007406;28;20468;-58
2023/09/10 02:20:22;;;;;;;26.98;24.08;;;17.70;99.90;;;;;;5009782;28;20041;-56
2023/09/10 02:22:48;;;;;;;23.95;21.35;;;17.70;99.90;;;;;;5014417;28;20401;-55
2023/09/10 02:25:14;;;;;;;20.67;18.10;;;17.70;99.90;;;;;;5019611;28;20536;-56
2023/09/10 02:27:40;;;;;;;19.38;17.38;;;17.60;99.90;;;;;;5029354;28;20049;-57
2023/09/10 02:30:09;;;;;;;16.45;14.75;;;17.60;99.90;;;;;;5029962;28;20047;-55
2023/09/10 02:32:37;;;;;;;16.33;14.63;;;17.60;99.90;;;;;;5010018;28;20091;-56
2023/09/10 02:35:03;;;;;;;16.95;14.98;;;17.60;99.90;;;;;;5033917;28;20049;-56
2023/09/10 02:37:31;;;;;;;15.85;14.25;;;17.60;99.90;;;;;;5004902;28;21994;-56
2023/09/10 02:39:57;;;;;;;15.15;13.65;;;17.60;99.90;;;;;;5013855;28;20131;-56
2023/09/10 02:42:22;;;;;;;15.88;12.68;;;17.60;99.90;;;;;;5019783;28;20635;-57
2023/09/10 02:44:48;;;;;;;18.92;16.33;;;17.60;99.90;;;;;;5012797;28;20049;-57
2023/09/10 02:47:14;;;;;;;17.00;15.30;;;17.60;99.90;;;;;;5029725;28;20045;-57
2023/09/10 02:49:40;;;;;;;15.73;14.00;;;17.60;99.90;;;;;;5029963;28;20397;-57
2023/09/10 02:52:05;;;;;;;17.58;15.55;;;17.60;99.90;;;;;;5032882;28;20056;-56
2023/09/10 02:54:33;;;;;;;12.73;11.40;;;17.50;99.90;;;;;;5028607;28;20489;-56
2023/09/10 02:56:59;;;;;;;9.65;8.75;;;17.50;99.90;;;;;;5030578;28;20166;-57
2023/09/10 02:59:26;;;;;;;9.45;8.32;;;17.50;99.90;;;;;;5031550;28;20433;-55
2023/09/10 03:01:52;;;;;;;11.65;10.55;;;17.50;99.90;;;;;;5009692;28;20041;-56
2023/09/10 03:04:18;;;;;;;10.20;9.20;;;17.50;99.90;;;;;;5026821;28;20052;-57
2023/09/10 03:06:45;;;;;;;9.30;8.40;;;17.40;99.90;;;;;;5024052;28;20044;-57
2023/09/10 03:09:12;;;;;;;10.20;9.07;;;17.40;99.90;;;;;;5013447;28;20028;-57
2023/09/10 03:11:38;;;;;;;11.02;9.35;;;17.40;99.90;;;;;;5031594;28;20363;-57
2023/09/10 03:14:08;;;;;;;9.50;8.60;;;17.30;99.90;;;;;;5032683;28;20049;-57
2023/09/10 03:16:35;;;;;;;9.05;8.15;;;17.30;99.90;;;;;;5028458;28;20393;-57
2023/09/10 03:19:01;;;;;;;9.98;8.98;;;17.30;99.90;;;;;;5027657;28;20045;-56
2023/09/10 03:21:27;;;;;;;11.02;9.90;;;17.30;99.90;;;;;;5029989;28;20072;-57
2023/09/10 03:23:54;;;;;;;17.80;14.45;;;17.30;99.90;;;;;;5015251;28;21085;-56
2023/09/10 03:26:20;;;;;;;14.73;13.07;;;17.20;99.90;;;;;;5013513;28;20049;-57
2023/09/10 03:28:46;;;;;;;19.80;17.70;;;17.20;99.90;;;;;;5029706;28;20382;-57
2023/09/10 03:31:11;;;;;;;19.05;16.88;;;17.20;99.90;;;;;;5032553;28;20091;-57
2023/09/10 03:33:37;;;;;;;14.52;13.02;;;17.20;99.90;;;;;;5029730;28;20032;-57
2023/09/10 03:36:03;;;;;;;17.67;15.70;;;17.20;99.90;;;;;;5032901;28;20072;-55
2023/09/10 03:38:30;;;;;;;13.65;12.27;;;17.20;99.90;;;;;;5032247;28;20072;-57
2023/09/10 03:40:55;;;;;;;12.40;11.18;;;17.20;99.90;;;;;;5031473;28;20040;-56
2023/09/10 03:43:21;;;;;;;14.68;13.18;;;17.20;99.90;;;;;;5031594;28;20075;-56
2023/09/10 03:45:47;;;;;;;15.65;13.98;;;17.10;99.90;;;;;;5020952;28;20083;-56
2023/09/10 03:48:13;;;;;;;14.38;12.88;;;17.10;99.90;;;;;;5029050;28;20046;-56
2023/09/10 03:50:39;;;;;;;14.95;13.45;;;17.10;99.90;;;;;;5021369;28;20140;-56
2023/09/10 03:53:05;;;;;;;17.23;15.45;;;17.10;99.90;;;;;;5031837;28;20048;-56
2023/09/10 03:55:31;;;;;;;23.67;19.75;;;17.10;99.90;;;;;;5028367;28;20074;-57
2023/09/10 03:57:56;;;;;;;21.95;19.42;;;17.00;99.90;;;;;;5030674;28;20033;-54
2023/09/10 04:00:22;;;;;;;18.38;16.25;;;17.10;99.90;;;;;;5029372;28;20033;-55
2023/09/10 04:02:48;;;;;;;14.60;13.10;;;17.00;99.90;;;;;;5031788;28;20048;-55
2023/09/10 04:05:14;;;;;;;13.55;11.98;;;17.00;99.90;;;;;;5028849;28;20049;-57
2023/09/10 04:07:40;;;;;;;14.65;10.90;;;17.00;99.90;;;;;;5028462;28;20132;-56
2023/09/10 04:10:07;;;;;;;11.50;10.30;;;17.00;99.90;;;;;;5030396;28;20499;-57
2023/09/10 04:12:33;;;;;;;14.23;12.82;;;17.00;99.90;;;;;;5027324;28;20459;-57
2023/09/10 04:14:59;;;;;;;12.60;11.30;;;17.00;99.90;;;;;;5029736;28;20065;-57
2023/09/10 04:17:29;;;;;;;12.15;10.90;;;16.90;99.90;;;;;;5031840;28;20041;-57
2023/09/10 04:19:56;;;;;;;17.05;14.07;;;16.90;99.90;;;;;;5008287;28;20041;-57
2023/09/10 04:22:21;;;;;;;15.57;13.88;;;16.90;99.90;;;;;;5030670;28;20045;-57
2023/09/10 04:24:47;;;;;;;18.33;16.35;;;16.80;99.90;;;;;;5022991;28;20053;-56
2023/09/10 04:27:13;;;;;;;18.63;16.63;;;16.80;99.90;;;;;;5027812;28;20049;-56
2023/09/10 04:29:38;;;;;;;18.45;16.45;;;16.80;99.90;;;;;;5011618;28;20041;-56
2023/09/10 04:32:04;;;;;;;16.70;14.93;;;16.80;99.90;;;;;;5027082;28;20492;-56
2023/09/10 04:34:30;;;;;;;17.27;15.48;;;16.80;99.90;;;;;;5028383;28;20511;-57
2023/09/10 04:36:56;;;;;;;15.15;13.65;;;16.80;99.90;;;;;;5029763;28;20040;-55
2023/09/10 04:39:22;;;;;;;13.75;12.35;;;16.80;99.90;;;;;;5031417;28;20042;-56
2023/09/10 04:41:47;;;;;;;14.60;12.75;;;16.80;99.90;;;;;;5031345;28;20049;-55
2023/09/10 04:44:13;;;;;;;13.18;11.77;;;16.80;99.90;;;;;;5029593;28;20524;-57
2023/09/10 04:46:39;;;;;;;12.32;10.23;;;16.80;99.90;;;;;;5006886;28;20874;-54
2023/09/10 04:49:05;;;;;;;12.32;10.13;;;16.80;99.90;;;;;;5028648;28;20048;-57
2023/09/10 04:51:30;;;;;;;9.90;8.90;;;16.80;99.90;;;;;;5027953;28;20068;-57
2023/09/10 04:53:56;;;;;;;8.57;7.78;;;16.80;99.90;;;;;;5019524;28;20049;-53
2023/09/10 04:56:22;;;;;;;8.00;7.20;;;16.80;99.90;;;;;;5031033;28;20033;-56
2023/09/10 04:58:48;;;;;;;10.23;8.77;;;16.70;99.90;;;;;;5018693;28;20099;-56
2023/09/10 05:01:14;;;;;;;9.10;8.20;;;16.70;99.90;;;;;;5030134;28;20040;-56
2023/09/10 05:03:41;;;;;;;9.60;8.60;;;16.70;99.90;;;;;;5032126;28;21055;-56
2023/09/10 05:06:08;;;;;;;10.73;9.65;;;16.70;99.90;;;;;;5033124;28;20041;-57
2023/09/10 05:08:34;;;;;;;11.95;10.63;;;16.70;99.90;;;;;;5036029;28;20045;-57
2023/09/10 05:11:00;;;;;;;12.32;11.10;;;16.70;99.90;;;;;;5032851;28;20037;-56
2023/09/10 05:13:26;;;;;;;8.15;7.40;;;16.70;99.90;;;;;;5013059;28;20080;-55
2023/09/10 05:15:54;;;;;;;7.22;6.63;;;16.60;99.90;;;;;;5032947;28;20127;-55
2023/09/10 05:18:21;;;;;;;7.32;6.63;;;16.60;99.90;;;;;;5014096;28;20033;-57
2023/09/10 05:20:52;;;;;;;7.88;7.18;;;16.60;99.90;;;;;;5031840;28;20095;-55
2023/09/10 05:23:22;;;;;;;8.68;7.78;;;16.50;99.90;;;;;;5035597;28;20049;-57
2023/09/10 05:25:49;;;;;;;8.85;7.95;;;16.50;99.90;;;;;;5014323;28;20728;-56
2023/09/10 05:28:15;;;;;;;12.05;10.88;;;16.50;99.90;;;;;;5014000;28;20131;-57
2023/09/10 05:30:40;;;;;;;11.45;10.30;;;16.50;99.90;;;;;;5014723;28;20041;-55
2023/09/10 05:33:06;;;;;;;10.02;9.02;;;16.50;99.90;;;;;;5016335;28;20749;-56
2023/09/10 05:35:32;;;;;;;10.70;9.65;;;16.50;99.90;;;;;;5033573;28;20507;-55
2023/09/10 05:37:58;;;;;;;11.50;10.30;;;16.60;99.90;;;;;;5033345;28;20045;-57
2023/09/10 05:40:25;;;;;;;11.63;10.43;;;16.60;99.90;;;;;;5034099;28;20036;-56
2023/09/10 05:42:51;;;;;;;13.15;9.93;;;16.60;99.90;;;;;;5032239;28;20128;-55
2023/09/10 05:45:17;;;;;;;10.82;9.73;;;16.60;99.90;;;;;;5031957;28;20071;-56
2023/09/10 05:47:43;;;;;;;10.77;9.68;;;16.60;99.90;;;;;;5033710;28;20477;-55
2023/09/10 05:50:09;;;;;;;10.30;9.40;;;16.60;99.90;;;;;;5031187;28;20060;-56
2023/09/10 05:52:35;;;;;;;10.20;9.20;;;16.70;99.90;;;;;;5028685;28;20048;-57
2023/09/10 05:55:01;;;;;;;9.93;9.05;;;16.70;99.90;;;;;;5033241;28;20413;-55
2023/09/10 05:57:27;;;;;;;9.77;8.88;;;16.70;99.90;;;;;;5031044;28;20057;-57
2023/09/10 05:59:53;;;;;;;12.15;10.85;;;16.80;99.90;;;;;;5032766;28;20055;-55
2023/09/10 06:02:18;;;;;;;12.32;11.07;;;16.80;99.90;;;;;;5012171;28;20053;-57
2023/09/10 06:04:44;;;;;;;11.93;9.90;;;16.80;99.90;;;;;;5031972;28;20045;-55
2023/09/10 06:07:10;;;;;;;12.10;10.45;;;16.90;99.90;;;;;;5030859;28;20843;-56
2023/09/10 06:09:36;;;;;;;11.55;10.25;;;16.90;99.90;;;;;;5010368;28;20045;-57
2023/09/10 06:12:04;;;;;;;13.57;12.25;;;16.90;99.90;;;;;;5033589;28;20559;-54
2023/09/10 06:14:33;;;;;;;13.68;12.27;;;17.00;99.90;;;;;;5034015;28;20052;-57
2023/09/10 06:16:59;;;;;;;17.52;14.52;;;17.10;99.90;;;;;;5031768;28;20075;-56
2023/09/10 06:19:25;;;;;;;25.95;21.75;;;17.10;99.90;;;;;;5027694;28;20045;-56
2023/09/10 06:21:50;;;;;;;29.17;22.75;;;17.20;99.90;;;;;;5032022;28;20618;-57
2023/09/10 06:24:16;;;;;;;27.95;23.23;;;17.30;99.90;;;;;;5030084;28;20049;-56
2023/09/10 06:26:42;;;;;;;36.28;29.15;;;17.30;99.90;;;;;;5032779;28;20065;-56
2023/09/10 06:29:08;;;;;;;37.75;29.75;;;17.40;99.90;;;;;;5012114;28;20068;-56
2023/09/10 06:31:33;;;;;;;34.60;28.50;;;17.50;99.90;;;;;;5028343;28;20132;-56
2023/09/10 06:33:59;;;;;;;36.08;28.48;;;17.60;99.90;;;;;;5030437;28;20040;-56
2023/09/10 06:36:25;;;;;;;38.20;30.40;;;17.60;99.90;;;;;;5031890;28;21924;-57
2023/09/10 06:38:51;;;;;;;35.13;29.70;;;17.70;99.90;;;;;;5033213;28;20036;-55
2023/09/10 06:41:17;;;;;;;32.90;27.80;;;17.80;99.90;;;;;;5015172;28;20051;-56
2023/09/10 06:43:44;;;;;;;36.42;30.08;;;17.80;99.90;;;;;;5028543;28;20799;-54
2023/09/10 06:46:10;;;;;;;33.45;27.63;;;17.90;99.90;;;;;;5012511;28;20690;-55
2023/09/10 06:48:36;;;;;;;35.22;29.52;;;18.00;99.90;;;;;;5027340;28;20099;-54
2023/09/10 06:51:02;;;;;;;34.28;28.58;;;18.10;99.90;;;;;;5032200;28;20040;-54
2023/09/10 06:53:30;;;;;;;39.83;32.35;;;18.10;99.90;;;;;;5029029;28;20052;-56
2023/09/10 06:55:56;;;;;;;43.22;33.53;;;18.20;99.90;;;;;;5026326;28;20056;-54
2023/09/10 06:58:22;;;;;;;42.30;33.88;;;18.30;99.90;;;;;;5030240;28;20127;-56
2023/09/10 07:00:48;;;;;;;39.17;32.78;;;18.40;99.90;;;;;;5027930;28;20048;-56
2023/09/10 07:03:14;;;;;;;35.67;29.92;;;18.40;99.90;;;;;;5023896;28;20045;-54
2023/09/10 07:05:43;;;;;;;43.65;33.95;;;18.50;99.90;;;;;;5015792;28;20036;-55
2023/09/10 07:08:12;;;;;;;40.63;32.70;;;18.60;99.90;;;;;;5029301;28;20547;-54
2023/09/10 07:10:39;;;;;;;39.70;33.20;;;18.60;99.90;;;;;;5028979;28;20137;-54
2023/09/10 07:13:07;;;;;;;41.90;34.13;;;18.70;99.90;;;;;;5028740;28;20541;-55
2023/09/10 07:15:36;;;;;;;39.13;34.40;;;18.80;99.90;;;;;;5034002;28;20025;-55
2023/09/10 07:18:04;;;;;;;39.13;31.50;;;18.90;99.90;;;;;;5033398;28;20725;-55
2023/09/10 07:20:29;;;;;;;43.53;34.42;;;19.00;99.90;;;;;;5033826;28;20435;-55
2023/09/10 07:22:55;;;;;;;43.67;34.67;;;19.10;99.90;;;;;;5029898;28;20037;-54
2023/09/10 07:25:21;;;;;;;40.50;34.10;;;19.20;99.90;;;;;;5012256;28;20057;-54
2023/09/10 07:27:47;;;;;;;45.92;36.42;;;19.30;99.90;;;;;;5029703;28;20790;-55
2023/09/10 07:30:12;;;;;;;51.10;39.55;;;19.40;99.90;;;;;;5033007;28;20409;-54
2023/09/10 07:32:38;;;;;;;48.70;39.90;;;19.50;99.90;;;;;;5012898;28;20088;-56
2023/09/10 07:35:04;;;;;;;54.58;40.72;;;19.60;99.90;;;;;;5027719;28;20052;-56
2023/09/10 07:37:30;;;;;;;51.17;42.00;;;19.70;99.90;;;;;;5028409;28;20647;-55
2023/09/10 07:39:56;;;;;;;52.70;40.70;;;19.90;99.90;;;;;;5030561;28;20046;-56
2023/09/10 07:42:22;;;;;;;50.58;39.28;;;20.10;99.90;;;;;;5031540;28;20053;-56
2023/09/10 07:44:47;;;;;;;42.95;34.63;;;20.20;99.90;;;;;;5011231;28;20962;-55
2023/09/10 07:47:13;;;;;;;40.03;34.10;;;20.30;99.90;;;;;;5006551;28;20084;-55
2023/09/10 07:49:39;;;;;;;35.17;27.42;;;20.50;99.90;;;;;;5010487;28;20071;-55
2023/09/10 07:52:05;;;;;;;30.73;26.55;;;20.60;99.90;;;;;;5029343;28;20041;-56
2023/09/10 07:54:31;;;;;;;30.35;23.58;;;20.80;99.90;;;;;;5008409;28;20626;-56
2023/09/10 07:56:57;;;;;;;31.67;24.63;;;20.90;99.90;;;;;;5028655;28;20074;-54
2023/09/10 07:59:23;;;;;;;29.38;23.83;;;21.10;99.90;;;;;;5024659;28;20385;-56
2023/09/10 08:01:49;;;;;;;32.10;24.58;;;21.20;99.90;;;;;;5027457;28;20051;-56
2023/09/10 08:04:15;;;;;;;28.23;24.33;;;21.30;99.90;;;;;;5032546;28;20489;-56
2023/09/10 08:06:40;;;;;;;30.52;23.38;;;21.40;99.90;;;;;;5030610;28;20040;-54
2023/09/10 08:09:08;;;;;;;28.60;23.25;;;21.50;99.90;;;;;;5013740;28;20597;-56
2023/09/10 08:11:34;;;;;;;29.13;24.00;;;21.60;99.90;;;;;;5009228;28;20044;-56
2023/09/10 08:14:00;;;;;;;27.85;23.63;;;21.70;99.90;;;;;;5026183;28;20120;-56
2023/09/10 08:16:26;;;;;;;25.50;22.25;;;21.90;99.90;;;;;;5026653;28;20045;-56
2023/09/10 08:18:52;;;;;;;25.02;22.17;;;22.00;99.90;;;;;;5024112;28;20079;-57
2023/09/10 08:21:17;;;;;;;27.70;22.60;;;22.10;99.90;;;;;;5030154;28;20101;-56
2023/09/10 08:23:44;;;;;;;23.27;20.77;;;22.30;99.90;;;;;;5029111;28;20030;-56
2023/09/10 08:26:11;;;;;;;26.05;19.52;;;22.40;99.90;;;;;;5014488;28;20052;-56
2023/09/10 08:28:36;;;;;;;22.15;18.58;;;22.50;99.90;;;;;;5008986;28;20053;-55
2023/09/10 08:31:02;;;;;;;21.20;18.63;;;22.70;99.90;;;;;;5010321;28;21094;-55
2023/09/10 08:33:28;;;;;;;19.92;17.48;;;22.80;99.90;;;;;;5014793;28;20076;-57
2023/09/10 08:35:55;;;;;;;20.20;17.33;;;22.90;99.90;;;;;;5014249;28;20467;-57
2023/09/10 08:38:22;;;;;;;20.27;16.92;;;23.00;99.90;;;;;;5013612;28;20053;-53
2023/09/10 08:40:53;;;;;;;21.58;16.23;;;23.10;99.90;;;;;;5014132;28;20080;-56
2023/09/10 08:43:23;;;;;;;23.07;15.47;;;23.30;99.90;;;;;;5012457;28;20505;-56
2023/09/10 08:45:50;;;;;;;19.15;14.20;;;23.40;99.90;;;;;;5014687;28;20412;-55
2023/09/10 08:48:18;;;;;;;18.30;14.00;;;23.50;99.90;;;;;;4985225;28;20847;-56
2023/09/10 08:50:46;;;;;;;16.13;12.70;;;23.60;99.90;;;;;;5009424;28;20120;-56
2023/09/10 08:53:13;;;;;;;14.65;11.57;;;23.80;99.90;;;;;;5013550;28;20048;-56
2023/09/10 08:55:42;;;;;;;12.57;10.90;;;23.90;99.90;;;;;;5003344;28;20045;-56
2023/09/10 08:58:11;;;;;;;17.60;11.80;;;24.10;99.90;;;;;;5008061;28;20104;-58
2023/09/10 09:00:38;;;;;;;12.63;10.23;;;24.20;99.90;;;;;;5012295;28;20044;-58
2023/09/10 09:03:04;;;;;;;14.38;8.82;;;24.30;99.90;;;;;;5015785;28;20497;-59
2023/09/10 09:05:31;;;;;;;15.80;10.57;;;24.40;99.90;;;;;;5017717;28;20068;-57
2023/09/10 09:08:08;;;;;;;11.73;9.63;;;24.40;99.90;;;;;;5016449;28;20528;-58
2023/09/10 09:10:34;;;;;;;14.25;10.27;;;24.60;99.90;;;;;;5004094;28;20042;-58
2023/09/10 09:13:06;;;;;;;15.50;11.18;;;24.70;99.90;;;;;;5016356;28;20052;-59
2023/09/10 09:15:32;;;;;;;11.65;9.70;;;24.90;99.90;;;;;;5007044;28;20052;-58
2023/09/10 09:17:59;;;;;;;18.52;9.80;;;25.00;99.90;;;;;;5010655;28;20054;-57
2023/09/10 09:20:25;;;;;;;15.27;10.57;;;25.10;99.90;;;;;;5014153;28;20106;-57
2023/09/10 09:23:09;;;;;;;15.20;9.93;;;25.20;99.90;;;;;;5016137;28;20034;-58
2023/09/10 09:25:36;;;;;;;16.50;8.73;;;25.40;99.90;;;;;;5003448;28;20604;-58
2023/09/10 09:28:03;;;;;;;15.75;8.75;;;25.50;99.90;;;;;;5011911;28;20054;-58
2023/09/10 09:30:29;;;;;;;10.27;8.10;;;25.60;99.90;;;;;;5019120;28;20045;-59
2023/09/10 09:32:56;;;;;;;9.60;8.30;;;25.70;99.90;;;;;;5016543;28;20041;-58
2023/09/10 09:35:22;;;;;;;9.43;8.00;;;25.90;99.90;;;;;;5015412;28;20044;-58
2023/09/10 09:37:47;;;;;;;16.70;9.50;;;25.90;99.90;;;;;;5014533;28;20062;-59
2023/09/10 09:40:18;;;;;;;14.90;9.32;;;26.10;99.90;;;;;;5015885;28;20498;-59
2023/09/10 09:42:44;;;;;;;11.75;7.60;;;26.10;99.90;;;;;;5016274;28;20126;-59
2023/09/10 09:45:10;;;;;;;11.63;8.00;;;26.20;99.90;;;;;;5013897;28;20103;-58
2023/09/10 09:47:36;;;;;;;11.60;7.63;;;26.40;99.90;;;;;;5015261;28;20053;-59
2023/09/10 09:50:03;;;;;;;9.98;8.18;;;26.50;99.90;;;;;;5016063;28;20485;-58
2023/09/10 09:52:29;;;;;;;9.85;8.00;;;26.60;99.90;;;;;;5013055;28;20095;-59
2023/09/10 09:54:55;;;;;;;14.73;8.32;;;26.80;99.90;;;;;;5013596;28;20124;-58
2023/09/10 09:57:21;;;;;;;8.63;7.63;;;26.90;99.70;;;;;;5014963;28;20433;-58
2023/09/10 09:59:49;;;;;;;15.00;8.13;;;27.00;99.60;;;;;;5014981;28;20072;-59
2023/09/10 10:02:17;;;;;;;10.90;8.13;;;27.20;99.40;;;;;;5014896;28;20547;-58
2023/09/10 10:04:43;;;;;;;11.40;8.43;;;27.30;99.20;;;;;;5014542;28;20048;-58
2023/09/10 10:07:12;;;;;;;14.85;8.73;;;27.40;99.10;;;;;;5015523;28;20489;-58
2023/09/10 10:09:40;;;;;;;10.30;8.18;;;27.50;98.70;;;;;;5015335;28;20045;-58
2023/09/10 10:12:07;;;;;;;14.52;8.55;;;27.60;98.30;;;;;;5011572;28;20144;-58
2023/09/10 10:14:34;;;;;;;12.25;8.90;;;27.70;98.10;;;;;;5016286;28;20053;-57
2023/09/10 10:17:01;;;;;;;15.43;9.07;;;27.80;98.00;;;;;;4993653;28;20446;-58
2023/09/10 10:19:31;;;;;;;16.88;9.35;;;27.90;97.80;;;;;;5015859;28;20034;-58
2023/09/10 10:21:57;;;;;;;16.48;8.55;;;28.00;97.40;;;;;;5016461;28;20038;-58
2023/09/10 10:24:23;;;;;;;10.57;8.15;;;28.10;97.30;;;;;;5013945;28;20044;-59
2023/09/10 10:26:53;;;;;;;12.55;9.20;;;28.20;97.00;;;;;;5013914;28;20057;-56
2023/09/10 10:29:21;;;;;;;11.20;9.20;;;28.40;96.70;;;;;;5016291;28;20049;-58
2023/09/10 10:31:52;;;;;;;10.90;8.13;;;28.40;96.30;;;;;;5021358;28;20335;-58
2023/09/10 10:34:36;;;;;;;12.73;8.18;;;28.50;95.80;;;;;;5021952;28;20478;-58
2023/09/10 10:37:15;;;;;;;17.00;8.25;;;28.60;95.30;;;;;;5022562;28;20041;-58
2023/09/10 10:40:11;;;;;;;10.02;7.70;;;28.60;94.20;;;;;;5021953;28;20042;-58
2023/09/10 10:42:47;;;;;;;7.90;7.00;;;28.70;93.50;;;;;;5020378;28;20029;-58
2023/09/10 10:45:17;;;;;;;9.68;7.38;;;28.70;93.70;;;;;;5021338;28;20438;-58
2023/09/10 10:47:44;;;;;;;8.38;6.95;;;28.90;94.00;;;;;;5018091;28;20053;-57
2023/09/10 10:50:11;;;;;;;12.50;7.90;;;29.10;93.80;;;;;;5021549;28;20052;-60
2023/09/10 10:52:47;;;;;;;12.93;7.07;;;29.20;93.60;;;;;;5021274;28;20056;-58
2023/09/10 10:55:13;;;;;;;9.15;6.22;;;29.40;93.10;;;;;;5021955;28;20049;-58
2023/09/10 10:57:40;;;;;;;8.63;6.68;;;29.50;93.30;;;;;;5005009;28;20041;-59
2023/09/10 11:00:09;;;;;;;10.40;7.78;;;29.70;92.30;;;;;;5021363;28;20048;-58
2023/09/10 11:02:35;;;;;;;8.50;6.35;;;29.80;91.80;;;;;;5016357;28;20068;-58
2023/09/10 11:05:03;;;;;;;10.50;7.60;;;29.90;91.40;;;;;;5019084;28;20045;-57
2023/09/10 11:07:30;;;;;;;7.82;5.88;;;29.90;90.30;;;;;;5019590;28;20076;-59
2023/09/10 11:10:25;;;;;;;10.77;6.20;;;29.90;90.70;;;;;;5019275;28;20128;-57
2023/09/10 11:13:08;;;;;;;8.70;6.22;;;30.00;90.70;;;;;;5016821;28;20049;-58
2023/09/10 11:15:34;;;;;;;13.30;6.22;;;30.20;90.80;;;;;;5003265;28;20069;-58
2023/09/10 11:18:34;;;;;;;8.68;6.57;;;30.30;90.50;;;;;;5016607;28;20393;-59
2023/09/10 11:21:04;;;;;;;8.70;5.63;;;30.50;90.30;;;;;;5021537;28;20171;-58
2023/09/10 11:23:31;;;;;;;10.65;5.60;;;30.60;88.90;;;;;;5020393;28;20460;-58
2023/09/10 11:26:12;;;;;;;8.68;6.07;;;30.80;88.90;;;;;;5025975;28;20072;-58
2023/09/10 11:28:45;;;;;;;9.85;5.60;;;31.00;87.50;;;;;;5042451;28;20512;-58
2023/09/10 11:31:33;;;;;;;8.10;5.95;;;31.20;87.80;;;;;;5041222;28;20551;-58
2023/09/10 11:34:17;;;;;;;9.38;5.72;;;31.30;87.40;;;;;;5039226;28;20154;-58
2023/09/10 11:36:47;;;;;;;11.70;5.57;;;31.40;86.40;;;;;;5041402;28;20087;-58
2023/09/10 11:39:14;;;;;;;13.68;5.57;;;31.40;85.50;;;;;;5041597;28;20041;-58
2023/09/10 11:41:50;;;;;;;8.48;5.90;;;31.40;85.10;;;;;;5041260;28;20053;-58
2023/09/10 11:44:16;;;;;;;8.63;6.10;;;31.50;83.20;;;;;;5038809;28;20052;-58
2023/09/10 11:46:42;;;;;;;20.90;6.53;;;31.50;83.20;;;;;;5021461;28;20119;-58
2023/09/10 11:49:08;;;;;;;6.05;5.03;;;31.60;82.80;;;;;;4999688;28;21457;-58
2023/09/10 11:51:48;;;;;;;10.95;5.53;;;31.70;83.00;;;;;;5033810;28;20045;-56
2023/09/10 11:54:18;;;;;;;7.72;5.65;;;31.80;83.30;;;;;;5030217;28;20472;-58
2023/09/10 11:56:49;;;;;;;13.88;5.68;;;32.00;82.50;;;;;;5031361;28;20039;-59
2023/09/10 11:59:16;;;;;;;10.83;6.07;;;32.10;80.90;;;;;;5013308;28;20040;-59
2023/09/10 12:01:42;;;;;;;10.07;5.80;;;32.20;80.00;;;;;;5030859;28;20369;-57
2023/09/10 12:04:08;;;;;;;8.63;5.10;;;32.30;79.30;;;;;;5000967;28;20132;-58
2023/09/10 12:06:33;;;;;;;7.53;5.13;;;32.30;79.20;;;;;;5031344;28;20503;-58
2023/09/10 12:08:59;;;;;;;9.63;5.47;;;32.40;79.50;;;;;;5031584;28;20500;-58
2023/09/10 12:11:26;;;;;;;12.00;5.50;;;32.60;79.80;;;;;;5032908;28;20033;-58
2023/09/10 12:13:52;;;;;;;13.25;5.28;;;32.70;79.20;;;;;;5033063;28;20037;-57
2023/09/10 12:16:19;;;;;;;11.82;5.70;;;32.70;78.70;;;;;;5030587;28;20049;-58
2023/09/10 12:18:45;;;;;;;12.27;5.95;;;32.90;78.30;;;;;;5032113;28;20098;-58
2023/09/10 12:21:14;;;;;;;11.38;5.78;;;33.00;77.50;;;;;;5033719;28;20077;-59
2023/09/10 12:23:41;;;;;;;8.45;5.00;;;33.00;77.10;;;;;;5032258;28;20044;-57
2023/09/10 12:26:08;;;;;;;8.27;4.93;;;33.20;76.90;;;;;;5031865;28;20945;-58
2023/09/10 12:28:34;;;;;;;9.88;5.05;;;33.30;77.30;;;;;;5033065;28;20053;-58
2023/09/10 12:31:00;;;;;;;13.70;5.28;;;33.40;77.20;;;;;;5031291;28;20033;-58
2023/09/10 12:33:26;;;;;;;12.65;5.28;;;33.40;75.70;;;;;;5032352;28;20460;-58
2023/09/10 12:35:52;;;;;;;14.52;5.18;;;33.50;74.90;;;;;;5032889;28;20120;-58